Latest Weather Observations for Coober Pedy Airport

IDS60801

Issued at 12:35 pm CST Saturday 23 August 2014 (issued every 30 minutes, with the page automatically refreshed every 10 minutes)

About weather observations | Map of weather stations | Latest weather observations for SA | Other Formats
Station Details ID: 016090 Name: COOBER PEDY AIRPORT Lat: -29.03 Lon: 134.72 Height: 225.0 m
Data from the previous 72 hours. | See also: Recent months at Coober Pedy Airport
Date/Time
CST
Temp
°C
App
Temp
°C
Dew
Point
Rel
Hum
%
Delta-T
°C
Wind Press
QNH
hPa
Press
MSL
hPa
Rain
since 9 am
mm
Dir
 
Spd
km/h
Gust
km/h
Spd
kts
Gust
kts
23/12:30pm 23.2 18.0 -2.4 18 11.2 NNW 15 20 8 11 1024.9 1024.8 0.0
23/12:00pm 22.6 16.1 -2.2 19 10.8 N 22 32 12 17 1025.3 1025.2 0.0
23/11:30am 21.9 15.8 -2.0 20 10.4 N 20 30 11 16 1025.6 1025.5 0.0
23/11:00am 21.0 14.5 -2.1 21 10.0 N 22 28 12 15 1026.0 1025.9 0.0
23/10:30am 20.6 14.2 -1.8 22 9.7 N 22 33 12 18 1026.1 1026.0 0.0
23/10:00am 18.9 12.8 -2.1 24 8.9 N 20 28 11 15 1026.1 1026.0 0.0
23/09:30am 18.6 12.8 -1.8 25 8.6 NNW 19 22 10 12 1025.9 1025.8 0.0
23/09:00am 16.8 13.4 -2.3 27 7.9 NNW 6 11 3 6 1025.8 1025.7 0.0
23/08:30am 13.8 10.4 -2.2 33 6.4 ESE 6 7 3 4 1025.6 1025.5 0.0
23/08:00am 11.2 7.7 -2.6 38 5.4 S 6 7 3 4 1025.4 1025.3 0.0
23/07:30am 8.7 5.0 -3.2 43 4.4 SW 7 11 4 6 1025.0 1024.9 0.0
23/07:00am 7.3 2.8 -3.5 46 3.9 SSW 11 13 6 7 1024.7 1024.6 0.0
23/06:30am 7.5 2.2 -3.6 45 4.0 SW 15 17 8 9 1024.3 1024.2 0.0
23/06:00am 9.1 5.4 -3.1 42 4.5 NNW 7 7 4 4 1023.6 1023.5 0.0
23/05:30am 9.8 5.6 -3.5 39 5.0 NNE 9 13 5 7 1023.2 1023.0 0.0
23/05:00am 10.1 4.5 -3.2 39 5.0 N 17 19 9 10 1022.5 1022.3 0.0
23/04:30am 10.1 4.5 -3.2 39 5.0 N 17 20 9 11 1022.2 1022.0 0.0
23/04:00am 10.5 4.5 -3.2 38 5.2 NNE 19 20 10 11 1021.8 1021.7 0.0
23/03:30am 11.2 4.6 -2.9 37 5.4 NNE 22 24 12 13 1021.7 1021.6 0.0
23/03:00am 11.0 4.8 -3.1 37 5.4 NNE 20 24 11 13 1021.7 1021.6 0.0
23/02:30am 11.5 5.3 -3.0 36 5.6 NNE 20 24 11 13 1021.6 1021.5 0.0
23/02:00am 12.4 5.5 -2.6 35 5.9 NNE 24 30 13 16 1021.6 1021.5 0.0
23/01:30am 13.4 6.6 -2.1 34 6.2 NE 24 32 13 17 1021.8 1021.7 0.0
23/01:00am 13.6 6.7 -2.3 33 6.4 NE 24 28 13 15 1022.1 1021.9 0.0
23/12:30am 14.0 6.0 -2.4 32 6.6 NE 30 35 16 19 1021.9 1021.8 0.0
23/12:00am 14.5 6.9 -2.4 31 6.8 NE 28 35 15 19 1021.9 1021.8 0.0
 
Date/Time
CST
Temp
°C
App
Temp
°C
Dew
Point
Rel
Hum
%
Delta-T
°C
Wind Press
QNH
hPa
Press
MSL
hPa
Rain
since 9 am
mm
Dir
 
Spd
km/h
Gust
km/h
Spd
kts
Gust
kts
22/11:30pm 14.3 7.4 -2.6 31 6.8 NNE 24 30 13 16 1022.3 1022.1 0.0
22/11:00pm 15.3 8.1 -2.2 30 7.2 NE 26 33 14 18 1022.2 1022.0 0.0
22/10:30pm 14.9 8.0 -3.0 29 7.1 NE 24 30 13 16 1022.3 1022.1 0.0
22/10:00pm 14.6 8.4 -2.8 30 6.9 NE 20 24 11 13 1022.5 1022.3 0.0
22/09:30pm 15.5 9.4 -2.4 29 7.3 NE 20 26 11 14 1022.4 1022.2 0.0
22/09:00pm 16.1 10.0 -2.4 28 7.6 NE 20 24 11 13 1022.2 1022.0 0.0
22/08:30pm 16.5 10.5 -3.0 26 7.9 NE 19 22 10 12 1022.2 1022.0 0.0
22/08:00pm 17.6 11.6 -3.2 24 8.5 NE 19 22 10 12 1021.7 1021.6 0.0
22/07:30pm 17.8 11.6 -3.0 24 8.5 NE 20 20 11 11 1021.6 1021.5 0.0
22/07:00pm 17.5 12.6 -3.8 23 8.6 NNE 13 13 7 7 1021.6 1021.5 0.0
22/06:30pm 20.0 14.8 -3.0 21 9.6 NNE 15 19 8 10 1021.2 1021.1 0.0
22/06:00pm 22.0 16.3 -3.4 18 10.8 NNE 17 20 9 11 1020.9 1020.8 0.0
22/05:30pm 23.2 16.5 -4.0 16 11.5 NNE 22 28 12 15 1020.6 1020.5 0.0
22/05:00pm 23.7 16.6 -4.4 15 11.9 NNE 24 32 13 17 1020.5 1020.4 0.0
22/04:30pm 24.1 17.0 -4.1 15 12.0 NNE 24 32 13 17 1020.3 1020.2 0.0
22/04:00pm 24.4 17.4 -3.9 15 12.2 N 24 33 13 18 1020.2 1020.1 0.0
22/03:30pm 24.2 16.9 -3.2 16 11.9 NNE 26 33 14 18 1020.3 1020.2 0.0
22/03:00pm 23.7 16.8 -2.8 17 11.5 N 24 33 13 18 1020.4 1020.3 0.0
22/02:30pm 23.7 16.2 -4.4 15 11.9 NNE 26 39 14 21 1020.7 1020.6 0.0
22/02:00pm 23.1 15.6 -4.9 15 11.7 N 26 37 14 20 1020.9 1020.8 0.0
22/01:30pm 22.4 14.9 -4.6 16 11.2 NNE 26 37 14 20 1021.3 1021.2 0.0
22/01:00pm 21.9 14.1 -4.2 17 10.9 NNE 28 35 15 19 1021.7 1021.6 0.0
22/12:30pm 21.6 13.9 -3.0 19 10.5 NNE 28 39 15 21 1022.5 1022.3 0.0
22/12:00pm 21.3 13.7 -2.5 20 10.2 N 28 39 15 21 1023.1 1022.9 0.0
22/11:30am 20.9 13.1 -1.0 23 9.6 N 30 39 16 21 1023.9 1023.8 0.0
22/11:00am 20.0 12.8 0.5 27 8.8 NNE 28 37 15 20 1024.1 1024.0 0.0
22/10:30am 18.3 11.5 0.9 31 7.8 NNE 26 30 14 16 1024.4 1024.3 0.0
22/10:00am 16.9 10.9 1.0 34 7.1 NE 22 30 12 16 1024.4 1024.3 0.0
22/09:30am 15.1 9.0 0.2 36 6.4 NNE 22 28 12 15 1024.6 1024.5 0.0
22/09:00am 13.3 7.4 -1.1 37 5.9 NNE 20 26 11 14 1024.5 1024.4 0.0
22/08:30am 11.6 6.0 -2.6 37 5.5 NNE 17 20 9 11 1024.3 1024.2 0.0
22/08:00am 9.5 4.6 -3.4 40 4.8 NNE 13 15 7 8 1024.1 1024.0 0.0
22/07:30am 7.9 2.2 -3.6 44 4.2 NNE 17 19 9 10 1023.8 1023.7 0.0
22/07:00am 7.5 1.3 -3.4 46 4.0 NNE 20 22 11 12 1023.3 1023.1 0.0
22/06:30am 7.8 2.2 -3.1 46 4.0 NE 17 20 9 11 1023.0 1022.8 0.0
22/06:00am 7.4 2.1 -3.4 46 3.9 NNE 15 17 8 9 1022.7 1022.5 0.0
22/05:30am 7.4 2.5 -3.7 45 4.0 NNE 13 15 7 8 1022.3 1022.1 0.0
22/05:00am 8.4 3.1 -3.7 42 4.4 NNE 15 17 8 9 1021.9 1021.8 0.0
22/04:30am 8.2 2.9 -3.9 42 4.4 NNE 15 17 8 9 1021.8 1021.7 0.0
22/04:00am 7.6 2.6 -4.5 42 4.3 NNE 13 13 7 7 1021.9 1021.8 0.0
22/03:30am 7.5 2.9 -4.2 43 4.2 N 11 17 6 9 1021.8 1021.7 0.0
22/03:00am 9.3 3.2 -3.9 39 4.8 NNE 19 20 10 11 1021.7 1021.6 0.0
22/02:30am 11.8 4.9 -2.4 37 5.6 NE 24 28 13 15 1021.4 1021.3 0.0
22/02:00am 11.8 4.4 -3.9 33 6.0 ENE 26 30 14 16 1021.5 1021.4 0.0
22/01:30am 11.0 4.6 -4.6 33 5.7 ENE 20 20 11 11 1022.4 1022.2 0.0
22/01:00am 11.2 4.8 -4.5 33 5.8 ENE 20 22 11 12 1022.8 1022.6 0.0
22/12:30am 9.5 3.6 -5.2 35 5.2 ENE 17 19 9 10 1022.9 1022.7 0.0
22/12:00am 9.1 3.9 -6.3 33 5.3 ENE 13 13 7 7 1023.2 1023.0 0.0
 
Date/Time
CST
Temp
°C
App
Temp
°C
Dew
Point
Rel
Hum
%
Delta-T
°C
Wind Press
QNH
hPa
Press
MSL
hPa
Rain
since 9 am
mm
Dir
 
Spd
km/h
Gust
km/h
Spd
kts
Gust
kts
21/11:30pm 10.6 5.1 -5.8 31 5.8 NE 15 17 8 9 1023.3 1023.1 0.0
21/11:00pm 12.2 6.3 -5.3 29 6.5 NE 17 20 9 11 1023.3 1023.1 0.0
21/10:30pm 13.2 6.8 -4.9 28 6.8 NE 20 22 11 12 1023.3 1023.1 0.0
21/10:00pm 13.2 6.9 -5.4 27 6.9 NE 19 20 10 11 1023.5 1023.4 0.0
21/09:30pm 13.1 7.2 -5.4 27 6.8 NE 17 20 9 11 1023.5 1023.4 0.0
21/09:00pm 13.4 7.5 -5.2 27 6.9 NE 17 19 9 10 1023.4 1023.2 0.0
21/08:30pm 12.5 6.6 -5.5 28 6.6 ENE 17 19 9 10 1023.0 1022.8 0.0
21/08:00pm 13.1 7.6 -5.4 27 6.9 NE 15 17 8 9 1022.7 1022.5 0.0
21/07:30pm 14.0 8.9 -5.2 26 7.2 NE 13 15 7 8 1022.5 1022.3 0.0
21/07:00pm 14.6 9.5 -5.2 25 7.5 NNE 13 13 7 7 1022.2 1022.0 0.0
21/06:30pm 15.7 10.6 -4.8 24 7.9 NNE 13 13 7 7 1021.7 1021.6 0.0
21/06:00pm 18.2 13.1 -5.1 20 9.2 NNE 13 17 7 9 1021.3 1021.2 0.0
21/05:30pm 19.2 13.8 -4.3 20 9.5 NE 15 19 8 10 1021.0 1020.9 0.0
21/05:00pm 19.4 13.7 -4.1 20 9.6 N 17 22 9 12 1020.8 1020.7 0.0
21/04:30pm 20.0 14.2 -4.3 19 9.9 NE 17 22 9 12 1020.5 1020.4 0.0
21/04:00pm 20.1 13.8 -4.2 19 10.0 NE 20 26 11 14 1020.5 1020.4 0.0
21/03:30pm 20.0 15.1 -3.6 20 9.8 NNE 13 20 7 11 1020.4 1020.3 0.0
21/03:00pm 19.7 14.4 -3.9 20 9.7 NE 15 26 8 14 1020.6 1020.5 0.0
21/02:30pm 19.3 14.0 -3.5 21 9.4 N 15 22 8 12 1020.8 1020.7 0.0
21/02:00pm 19.4 15.4 -2.2 23 9.2 NNE 9 15 5 8 1021.1 1021.0 0.0
21/01:30pm 18.9 13.7 -2.7 23 9.0 NE 15 24 8 13 1021.7 1021.6 0.0
21/01:00pm 18.3 13.9 -2.6 24 8.7 N 11 20 6 11 1022.3 1022.1 0.0
21/12:30pm 18.0 12.5 -2.3 25 8.5 NNE 17 24 9 13 1022.8 1022.6 0.0
21/12:00pm 17.7 13.0 -2.0 26 8.2 N 13 24 7 13 1023.3 1023.1 0.0
21/11:30am 16.3 10.4 -2.2 28 7.6 NNE 19 28 10 15 1023.7 1023.6 0.0
21/11:00am 16.0 10.6 -1.1 31 7.2 NNE 17 28 9 15 1024.1 1024.0 0.0
21/10:30am 15.6 10.2 -1.0 32 6.9 NE 17 22 9 12 1024.2 1024.1 0.0
21/10:00am 14.4 9.5 -0.5 36 6.3 NE 15 19 8 10 1024.3 1024.2 0.0
21/09:30am 13.5 8.6 -0.2 39 5.7 NE 15 19 8 10 1024.4 1024.3 0.0
21/09:00am 12.2 7.4 0.0 43 5.1 NE 15 19 8 10 1024.3 1024.2 0.0
21/08:30am 10.7 6.1 -0.7 45 4.6 NE 13 15 7 8 1024.0 1023.9 0.0
21/08:00am 7.7 3.4 -1.5 52 3.5 E 11 11 6 6 1023.6 1023.5 0.0
21/07:30am 4.8 0.0 -2.7 58 2.7 ENE 13 15 7 8 1023.5 1023.4 0.0
21/07:00am 4.8 0.0 -2.5 59 2.6 E 13 15 7 8 1023.4 1023.2 0.0
21/06:30am 5.0 0.6 -2.8 57 2.8 ENE 11 13 6 7 1023.0 1022.8 0.0
21/06:00am 4.5 -0.3 -2.8 59 2.6 NE 13 13 7 7 1022.7 1022.5 0.0
21/05:30am 5.1 -0.1 -2.5 58 2.7 NE 15 15 8 8 1022.5 1022.3 0.0
21/05:00am 5.4 0.3 -2.2 58 2.8 NNE 15 15 8 8 1022.5 1022.3 0.0
21/04:30am 5.9 0.4 -2.0 57 2.9 NNE 17 17 9 9 1022.4 1022.2 0.0
21/04:00am 6.1 1.0 -2.0 56 3.0 NE 15 19 8 10 1022.5 1022.3 0.0
21/03:30am 7.4 2.0 -1.3 54 3.3 NE 17 19 9 10 1022.5 1022.3 0.0
21/03:00am 6.5 1.7 -2.4 53 3.3 ENE 13 15 7 8 1022.8 1022.6 0.0
21/02:30am 7.4 2.7 -2.1 51 3.6 ENE 13 15 7 8 1023.0 1022.8 0.0
21/02:00am 7.6 2.9 -1.9 51 3.6 NE 13 13 7 7 1023.4 1023.2 0.0
21/01:30am 7.8 2.4 -1.4 52 3.5 NE 17 19 9 10 1023.5 1023.4 0.0
21/01:00am 8.0 3.3 -1.8 50 3.7 ENE 13 15 7 8 1023.7 1023.6 0.0
21/12:30am 8.6 3.5 -1.8 48 4.0 E 15 19 8 10 1023.7 1023.6 0.0
21/12:00am 9.5 4.1 -1.5 46 4.3 E 17 19 9 10 1023.7 1023.6 0.0
 
Date/Time
CST
Temp
°C
App
Temp
°C
Dew
Point
Rel
Hum
%
Delta-T
°C
Wind Press
QNH
hPa
Press
MSL
hPa
Rain
since 9 am
mm
Dir
 
Spd
km/h
Gust
km/h
Spd
kts
Gust
kts
20/11:30pm 9.6 4.5 -1.7 45 4.4 E 15 17 8 9 1023.8 1023.7 0.0
20/11:00pm 9.8 4.7 -1.9 44 4.5 E 15 15 8 8 1024.0 1023.9 0.0
20/10:30pm 10.0 5.3 -2.0 43 4.6 E 13 15 7 8 1024.0 1023.9 0.0
20/10:00pm 10.5 5.8 -1.5 43 4.7 E 13 15 7 8 1024.0 1023.9 0.0
20/09:30pm 10.8 5.7 -1.6 42 4.9 E 15 17 8 9 1023.9 1023.8 0.0
20/09:00pm 11.2 6.2 -1.2 42 4.9 ESE 15 17 8 9 1023.7 1023.6 0.0
20/08:30pm 11.6 7.0 -1.2 41 5.1 SE 13 15 7 8 1023.5 1023.4 0.0
20/08:00pm 12.2 7.2 -1.3 39 5.5 ESE 15 17 8 9 1023.2 1023.0 0.0
20/07:30pm 12.8 8.1 -1.5 37 5.8 SE 13 13 7 7 1023.0 1022.8 0.0
20/07:00pm 13.7 9.0 -1.5 35 6.2 SE 13 15 7 8 1022.6 1022.4 0.0
20/06:30pm 15.0 11.1 -1.5 32 6.8 SE 9 11 5 6 1022.3 1022.1 0.0
20/06:00pm 16.6 13.3 -1.0 30 7.4 E 6 9 3 5 1021.9 1021.8 0.0
20/05:30pm 17.1 12.9 -1.1 29 7.7 ESE 11 17 6 9 1021.6 1021.5 0.0
20/05:00pm 17.4 13.2 -0.8 29 7.8 SE 11 19 6 10 1021.5 1021.4 0.0
20/04:30pm 17.6 13.4 -0.6 29 7.8 E 11 15 6 8 1021.3 1021.2 0.0
20/04:00pm 17.7 13.2 -0.5 29 7.9 ESE 13 20 7 11 1021.2 1021.1 0.0
20/03:30pm 18.0 13.5 -0.3 29 8.0 E 13 24 7 13 1021.1 1021.0 0.0
20/03:00pm 17.6 13.4 -0.6 29 7.8 E 11 19 6 10 1021.2 1021.1 0.0
20/02:30pm 17.6 13.1 -0.2 30 7.7 SE 13 22 7 12 1021.4 1021.3 0.0
20/02:00pm 17.6 12.8 0.3 31 7.6 ENE 15 24 8 13 1021.6 1021.5 0.0
20/01:30pm 17.3 12.8 0.0 31 7.5 ENE 13 22 7 12 1022.3 1022.1 0.0
20/01:00pm 16.8 12.3 0.0 32 7.3 E 13 26 7 14 1022.8 1022.6 0.0

Other Formats:

Comma delimited format used in spreadsheet applications
http://www.bom.gov.au/fwo/IDS60801/IDS60801.95458.axf

JavaScript Object Notation format (JSON) in row-major order
http://www.bom.gov.au/fwo/IDS60801/IDS60801.95458.json